Reklama
Líbí se Vám tento web? Budeme velmi rádi, pokud přidáte hodnocení +1

Seznam meteostanic a jejich METAR

Vyhledat místa podle abecedy:
A B C D E F G H I J K L M N O P Q R S T U V W X Y Z

Filtrovat:

ID stanice:
a/nebo
Název místa (fulltext):
 
Místo (ID)Naposledy načteno 
Ústí nad Labem - Kočkov (Usti n/L) 21.06.2018 02:00 UTC Zobrazit data
Místo: Ústí nad Labem - Kočkov
Teplota: 19 °C (pocitová: 19 °C)
Vítr: 1 m/s z(e) 260°
Počasí:
Dohlednost: 35 km
Zákl. oblačnosti: N/A
Vlhkost: 68%
Ústí nad Orlicí (Usti n/O) 21.06.2018 02:00 UTC Zobrazit data
Místo: Ústí nad Orlicí
Teplota: 14 °C (pocitová: 11.3 °C)
Vítr: 3 m/s z(e) 50°
Počasí: skoro zataženo
Dohlednost: 23 km
Zákl. oblačnosti: 7/8 1800 m
Vlhkost: 94%
Ulaanbaatar (ZMUB) Zatím nenačteno  
Uvea Island (NLWW) 01.02.2018 13:00 UTC Zobrazit METAR
NLWW 011300Z AUTO 33009KT 300V360 9999 BKN012/// BKN021/// BKN066/// 26/25 Q1004 TEMPO 4000 SHRA BKN014 SCT020TCU
Uzhhorod (UKLU) Zatím nenačteno  
Reklama

Počasí na Váš email

Emaily jsou bez reklamy a bez spamu



Odhlásit newsletter

Reklama


Lunární kalendář

  • 28.06.
  • 06.07.
  • 13.07.
  • 19.07.



Slunečno.cz na Google+

Reklama


Reklama
Povinné ručení
Reklama




Reklama